Latest Weather Observations for Rolleston Airport

IDQ60801

Issued at 8:35 am EST Thursday 23 October 2014 (issued every 30 minutes, with the page automatically refreshed every 10 minutes)

About weather observations | Map of weather stations | Latest weather observations for QLD | Other Formats
Station Details ID: 035129 Name: ROLLESTON AIRPORT Lat: -24.46 Lon: 148.63 Height: 219.45 m
Data from the previous 72 hours. | See also: Recent months at Rolleston Airport
Date/Time
EST
Temp
°C
App
Temp
°C
Dew
Point
Rel
Hum
%
Delta-T
°C
Wind Press
QNH
hPa
Press
MSL
hPa
Rain
since 9 am
mm
Dir
 
Spd
km/h
Gust
km/h
Spd
kts
Gust
kts
23/08:30am 22.0 21.6 12.5 54 5.4 S 6 13 3 7 1022.7 1021.7 0.0
23/08:00am 20.5 20.0 12.0 58 4.8 SE 6 11 3 6 1022.9 1021.9 0.0
23/07:30am 19.8 20.1 12.3 62 4.2 SW 2 6 1 3 1022.8 1021.8 0.0
23/07:00am 18.5 17.7 11.1 62 4.0 SSE 6 7 3 4 1022.9 1021.9 0.0
23/06:30am 16.6 15.8 11.1 70 3.0 SSE 6 7 3 4 1022.7 1021.7 0.0
23/06:00am 14.8 13.9 10.8 77 2.1 SSE 6 7 3 4 1022.3 1021.3 0.0
23/05:30am 14.0 13.1 10.6 80 1.8 SSE 6 7 3 4 1022.0 1021.0 0.0
23/05:00am 14.0 12.9 10.0 77 2.1 SSE 6 6 3 3 1021.9 1020.9 0.0
23/04:30am 13.7 12.8 9.4 75 2.2 SSW 4 6 2 3 1021.7 1020.7 0.0
23/04:00am 14.9 14.3 10.5 75 2.3 SW 4 7 2 4 1021.3 1020.4 0.0
23/03:30am 14.9 14.2 9.9 72 2.6 SSW 4 6 2 3 1021.1 1020.1 0.0
23/03:00am 15.4 15.6 10.4 72 2.7 CALM 0 0 0 0 1021.0 1020.0 0.0
23/02:30am 17.3 17.0 11.6 69 3.1 NNE 4 4 2 2 1021.1 1020.1 0.0
23/02:00am 17.7 17.4 11.5 67 3.4 NNE 4 6 2 3 1021.0 1020.0 0.0
23/01:30am 18.5 17.8 12.0 66 3.6 NE 7 9 4 5 1021.0 1020.0 0.0
23/01:00am 18.7 17.8 11.5 63 4.0 NE 7 9 4 5 1021.1 1020.1 0.0
23/12:30am 17.8 17.0 9.7 59 4.3 N 4 4 2 2 1021.2 1020.3 0.0
23/12:00am 19.4 18.2 9.6 53 5.2 N 6 7 3 4 1021.0 1020.0 0.0
 
Date/Time
EST
Temp
°C
App
Temp
°C
Dew
Point
Rel
Hum
%
Delta-T
°C
Wind Press
QNH
hPa
Press
MSL
hPa
Rain
since 9 am
mm
Dir
 
Spd
km/h
Gust
km/h
Spd
kts
Gust
kts
22/11:30pm 18.4 17.4 8.7 53 5.1 W 4 6 2 3 1021.1 1020.1 0.0
22/11:00pm 19.8 18.7 8.5 48 5.9 E 4 6 2 3 1021.0 1020.0 0.0
22/10:30pm 20.9 19.8 8.5 45 6.6 E 4 6 2 3 1020.9 1019.9 0.0
22/10:00pm 21.6 20.4 9.5 46 6.5 E 6 7 3 4 1020.6 1019.6 0.0
22/09:30pm 22.3 20.9 9.5 44 7.0 E 7 9 4 5 1020.4 1019.4 0.0
22/09:00pm 22.7 21.3 9.5 43 7.2 E 7 9 4 5 1020.3 1019.3 0.0
22/08:30pm 23.3 21.4 9.0 40 7.8 ENE 9 9 5 5 1020.0 1019.0 0.0
22/08:00pm 23.8 22.2 8.6 38 8.2 ENE 7 9 4 5 1019.7 1018.7 0.0
22/07:30pm 24.8 23.1 8.3 35 8.9 ENE 7 9 4 5 1019.5 1018.5 0.0
22/07:00pm 26.0 24.3 8.5 33 9.5 ENE 7 9 4 5 1019.2 1018.2 0.0
22/06:30pm 27.1 24.7 8.5 31 10.2 E 11 15 6 8 1018.9 1017.9 0.0
22/06:00pm 28.4 26.0 8.7 29 10.9 E 11 17 6 9 1018.6 1017.6 0.0
22/05:30pm 29.2 26.5 8.8 28 11.4 E 13 19 7 10 1018.4 1017.4 0.0
22/05:00pm 29.8 27.4 8.8 27 11.7 ESE 11 19 6 10 1018.4 1017.4 0.0
22/04:30pm 29.9 27.7 9.4 28 11.6 ESE 11 20 6 11 1018.5 1017.5 0.0
22/04:00pm 29.9 27.5 9.9 29 11.4 SE 13 24 7 13 1018.6 1017.6 0.0
22/03:30pm 30.1 28.5 10.1 29 11.4 SSW 9 13 5 7 1018.8 1017.8 0.0
22/03:00pm 29.6 27.0 10.7 31 10.9 SE 15 24 8 13 1019.1 1018.1 0.0
22/02:30pm 29.7 27.7 10.3 30 11.1 ESE 11 20 6 11 1019.4 1018.4 0.0
22/02:00pm 28.8 27.0 10.9 33 10.3 ESE 11 20 6 11 1019.8 1018.8 0.0
22/01:30pm 28.9 26.9 11.5 34 10.1 ESE 13 20 7 11 1020.3 1019.3 0.0
22/01:00pm 27.9 26.1 11.0 35 9.7 E 11 24 6 13 1020.8 1019.8 0.0
22/12:30pm 27.2 26.0 11.7 38 9.0 E 9 20 5 11 1021.3 1020.4 0.0
22/12:00pm 27.2 26.6 12.4 40 8.6 E 7 17 4 9 1022.1 1021.1 0.0
22/11:30am 26.2 25.5 11.9 41 8.3 S 7 19 4 10 1022.6 1021.6 0.0
22/11:00am 26.0 25.7 13.2 45 7.5 E 7 19 4 10 1023.1 1022.1 0.0
22/10:30am 25.0 24.1 12.6 46 7.2 E 9 17 5 9 1023.6 1022.6 0.0
22/10:00am 24.8 24.0 13.0 47 6.9 SE 9 17 5 9 1024.1 1023.1 0.0
22/09:30am 23.4 22.5 12.7 51 6.2 E 9 20 5 11 1024.5 1023.5 0.0
22/09:00am 22.4 22.0 12.9 55 5.5 E 7 13 4 7 1024.7 1023.7 0.0
22/08:30am 22.4 21.7 13.2 56 5.3 E 9 19 5 10 1024.7 1023.7 0.0
22/08:00am 21.1 20.8 12.8 59 4.7 S 6 11 3 6 1024.6 1023.6 0.0
22/07:30am 18.4 17.0 11.0 62 4.1 SSE 9 11 5 6 1024.6 1023.6 0.0
22/07:00am 16.9 16.3 10.5 66 3.4 S 4 6 2 3 1024.4 1023.4 0.0
22/06:30am 16.0 16.1 10.1 68 3.1 CALM 0 2 0 1 1024.2 1023.2 0.0
22/06:00am 15.0 14.3 8.5 65 3.3 S 2 2 1 1 1023.9 1022.9 0.0
22/05:30am 15.1 14.5 8.8 66 3.2 SSW 2 4 1 2 1023.6 1022.6 0.0
22/05:00am 14.3 14.2 9.3 72 2.6 CALM 0 0 0 0 1023.5 1022.5 0.0
22/04:30am 14.3 13.3 8.7 69 2.9 S 4 6 2 3 1023.2 1022.2 0.0
22/04:00am 14.3 12.9 8.9 70 2.8 S 6 6 3 3 1023.2 1022.2 0.0
22/03:30am 14.7 14.5 8.9 68 3.0 CALM 0 0 0 0 1023.0 1022.0 0.0
22/03:00am 15.9 15.7 9.1 64 3.5 CALM 0 0 0 0 1022.9 1021.9 0.0
22/02:30am 16.5 16.5 9.7 64 3.6 CALM 0 0 0 0 1023.2 1022.2 0.0
22/02:00am 16.7 16.3 9.6 63 3.7 SSW 2 6 1 3 1023.3 1022.3 0.0
22/01:30am 16.8 15.4 8.8 59 4.2 SW 6 6 3 3 1023.6 1022.6 0.0
22/01:00am 16.8 16.0 8.0 56 4.5 SW 2 4 1 2 1023.8 1022.8 0.0
22/12:30am 17.5 16.8 8.4 55 4.7 WSW 2 4 1 2 1023.9 1022.9 0.0
22/12:00am 17.8 17.1 8.4 54 4.9 WSW 2 4 1 2 1024.2 1023.2 0.0
 
Date/Time
EST
Temp
°C
App
Temp
°C
Dew
Point
Rel
Hum
%
Delta-T
°C
Wind Press
QNH
hPa
Press
MSL
hPa
Rain
since 9 am
mm
Dir
 
Spd
km/h
Gust
km/h
Spd
kts
Gust
kts
21/11:30pm 19.4 19.0 9.9 54 5.1 NW 2 2 1 1 1024.3 1023.3 0.0
21/11:00pm 20.6 19.5 9.8 50 5.8 NNE 6 7 3 4 1024.3 1023.3 0.0
21/10:30pm 21.2 19.6 8.8 45 6.6 ENE 7 11 4 6 1024.3 1023.3 0.0
21/10:00pm 22.0 19.6 8.5 42 7.2 NE 11 17 6 9 1023.9 1022.9 0.0
21/09:30pm 22.2 19.6 6.0 35 8.3 NE 9 15 5 8 1023.4 1022.4 0.0
21/09:00pm 22.3 20.3 6.1 35 8.3 NE 6 7 3 4 1022.8 1021.8 0.0
21/08:30pm 24.2 21.6 6.0 31 9.4 NE 9 9 5 5 1022.4 1021.4 0.0
21/08:00pm 24.4 22.3 6.6 32 9.3 NE 7 9 4 5 1022.1 1021.1 0.0
21/07:30pm 25.1 23.0 6.8 31 9.6 NE 7 9 4 5 1021.9 1020.9 0.0
21/07:00pm 25.7 23.8 6.8 30 10.0 NE 6 7 3 4 1021.7 1020.7 0.0
21/06:30pm 26.8 24.7 6.8 28 10.6 NE 7 9 4 5 1021.5 1020.5 0.0
21/06:00pm 28.1 25.7 6.8 26 11.4 ENE 9 15 5 8 1021.1 1020.1 0.0
21/05:30pm 28.9 25.7 6.9 25 11.9 E 13 19 7 10 1021.0 1020.0 0.0
21/05:00pm 29.6 26.4 6.9 24 12.3 E 13 24 7 13 1020.6 1019.6 0.0
21/04:30pm 29.4 24.3 6.1 23 12.4 ESE 22 32 12 17 1020.5 1019.5 0.0
21/04:00pm 30.1 25.5 5.4 21 13.0 E 19 32 10 17 1020.4 1019.4 0.0
21/03:30pm 30.3 26.4 6.9 23 12.7 ESE 17 30 9 16 1020.4 1019.4 0.0
21/03:00pm 29.6 25.7 6.9 24 12.3 ESE 17 22 9 12 1020.7 1019.7 0.0
21/02:30pm 29.0 26.2 7.0 25 11.9 ESE 11 33 6 18 1021.0 1020.0 0.0
21/02:00pm 29.1 25.2 7.1 25 11.9 E 17 28 9 15 1021.6 1020.6 0.0
21/01:30pm 28.5 23.4 6.0 24 11.9 E 22 33 12 18 1022.1 1021.1 0.0
21/01:00pm 28.7 24.6 7.9 27 11.4 ENE 19 28 10 15 1022.5 1021.5 0.0
21/12:30pm 27.4 23.4 8.3 30 10.5 SE 19 24 10 13 1023.1 1022.1 0.0
21/12:00pm 27.0 24.4 9.4 33 9.8 ENE 13 28 7 15 1023.9 1022.9 0.0
21/11:30am 25.5 23.0 9.7 37 8.8 E 13 24 7 13 1024.5 1023.5 0.0
21/11:00am 24.9 23.6 11.1 42 7.8 SSE 9 22 5 12 1025.1 1024.1 0.0
21/10:30am 24.6 22.6 11.5 44 7.5 ESE 13 28 7 15 1025.4 1024.5 0.0
21/10:00am 23.5 22.0 11.9 48 6.6 E 11 28 6 15 1025.9 1025.0 0.0
21/09:30am 23.3 21.3 12.6 51 6.2 ESE 15 22 8 12 1026.3 1025.3 0.0
21/09:00am 22.3 19.6 11.7 51 6.0 ESE 17 22 9 12 1026.4 1025.4 0.0
21/08:30am 21.7 18.1 11.7 53 5.6 E 22 30 12 16 1026.4 1025.4 0.0
21/08:00am 20.6 18.5 12.3 59 4.7 SE 15 20 8 11 1026.3 1025.3 0.0
21/07:30am 19.6 17.0 12.1 62 4.2 SE 17 26 9 14 1026.0 1025.1 0.0
21/07:00am 17.7 16.4 11.3 66 3.5 SSE 9 13 5 7 1025.7 1024.8 0.0
21/06:30am 15.5 14.5 10.3 71 2.8 SSE 6 9 3 5 1025.4 1024.5 0.0
21/06:00am 14.1 13.1 10.3 78 2.0 SSE 6 6 3 3 1024.9 1023.9 0.0
21/05:30am 13.1 12.2 9.4 78 1.9 SSE 4 6 2 3 1024.6 1023.6 0.0
21/05:00am 14.1 13.4 10.1 77 2.1 SSE 4 6 2 3 1024.3 1023.3 0.0
21/04:30am 14.6 13.5 10.6 77 2.1 SE 7 9 4 5 1024.0 1023.0 0.0
21/04:00am 14.5 13.4 10.5 77 2.1 SE 7 9 4 5 1023.9 1022.9 0.0
21/03:30am 15.6 14.5 10.6 72 2.7 SE 7 9 4 5 1023.8 1022.8 0.0
21/03:00am 15.4 13.7 10.0 70 2.8 SE 9 9 5 5 1023.5 1022.5 0.0
21/02:30am 15.9 14.2 10.0 68 3.1 SE 9 9 5 5 1023.4 1022.4 0.0
21/02:00am 16.7 15.0 9.9 64 3.6 SE 9 11 5 6 1023.2 1022.2 0.0
21/01:30am 16.5 14.9 8.0 57 4.3 S 6 7 3 4 1023.2 1022.2 0.0
21/01:00am 18.5 17.5 9.0 54 5.0 ESE 4 6 2 3 1023.3 1022.3 0.0
21/12:30am 17.4 15.7 8.3 55 4.7 SE 7 9 4 5 1023.5 1022.5 0.0
21/12:00am 19.5 17.9 7.9 47 6.0 E 6 9 3 5 1023.2 1022.2 0.0
 
Date/Time
EST
Temp
°C
App
Temp
°C
Dew
Point
Rel
Hum
%
Delta-T
°C
Wind Press
QNH
hPa
Press
MSL
hPa
Rain
since 9 am
mm
Dir
 
Spd
km/h
Gust
km/h
Spd
kts
Gust
kts
20/11:30pm 19.4 18.4 7.5 46 6.1 N 2 4 1 2 1022.6 1021.6 0.0
20/11:00pm 20.4 18.5 6.7 41 7.0 N 6 9 3 5 1022.5 1021.5 0.0
20/10:30pm 22.1 18.9 6.7 37 8.0 NE 13 17 7 9 1022.3 1021.3 0.0
20/10:00pm 23.4 18.9 6.2 33 8.8 NE 19 24 10 13 1022.3 1021.3 0.0
20/09:30pm 24.5 20.2 5.3 29 9.8 E 17 24 9 13 1022.0 1021.0 0.0
20/09:00pm 25.1 21.3 5.8 29 10.0 ESE 15 19 8 10 1021.6 1020.6 0.0
20/08:30pm 22.5 20.1 7.1 37 8.0 ESE 9 13 5 7 1021.2 1020.3 0.0
20/08:00pm 22.7 20.6 6.5 35 8.3 SE 7 11 4 6 1020.9 1019.9 0.0
20/07:30pm 25.3 23.3 7.0 31 9.7 ENE 7 9 4 5 1020.5 1019.5 0.0
20/07:00pm 25.5 23.4 6.7 30 9.9 ENE 7 9 4 5 1020.2 1019.2 0.0
20/06:30pm 27.0 24.8 6.4 27 10.9 ENE 7 11 4 6 1019.8 1018.8 0.0
20/06:00pm 28.9 26.1 6.9 25 11.8 ENE 11 15 6 8 1019.5 1018.5 0.0
20/05:30pm 29.9 26.8 7.2 24 12.4 E 13 22 7 12 1019.2 1018.2 0.0
20/05:00pm 30.3 27.9 6.9 23 12.7 ESE 9 20 5 11 1018.9 1017.9 0.0
20/04:30pm 30.6 26.2 6.5 22 13.0 E 19 28 10 15 1018.8 1017.8 0.0
20/04:00pm 30.7 26.8 7.2 23 12.8 SE 17 28 9 15 1018.8 1017.8 0.0
20/03:30pm 31.1 25.8 6.9 22 13.2 ESE 24 30 13 16 1019.1 1018.1 0.0
20/03:00pm 30.8 27.3 7.3 23 12.9 SE 15 24 8 13 1019.2 1018.2 0.0
20/02:30pm 30.1 25.0 6.1 22 12.9 ESE 22 33 12 18 1019.6 1018.6 0.0
20/02:00pm 31.0 26.8 8.1 24 12.7 E 20 30 11 16 1020.0 1019.0 0.0
20/01:30pm 30.3 26.1 8.1 25 12.3 SE 20 32 11 17 1020.4 1019.4 0.0
20/01:00pm 30.2 25.6 8.0 25 12.2 E 22 32 12 17 1021.1 1020.1 0.0
20/12:30pm 28.3 25.8 9.6 31 10.5 SE 13 30 7 16 1021.8 1020.8 0.0
20/12:00pm 27.8 25.1 9.1 31 10.4 ESE 13 20 7 11 1022.5 1021.5 0.0
20/11:30am 26.8 24.2 9.2 33 9.8 ESE 13 22 7 12 1023.1 1022.1 0.0
20/11:00am 25.8 24.4 10.8 39 8.5 SE 9 19 5 10 1023.8 1022.8 0.0
20/10:30am 24.9 24.0 11.5 43 7.7 S 7 15 4 8 1024.4 1023.4 0.0
20/10:00am 24.5 24.0 12.5 47 6.9 ESE 7 13 4 7 1024.8 1023.8 0.0
20/09:30am 22.9 22.3 11.6 49 6.4 SSW 6 11 3 6 1025.3 1024.4 0.0
20/09:00am 22.7 22.2 12.0 50 6.1 E 6 11 3 6 1025.6 1024.7 0.0

Other Formats:

Comma delimited format used in spreadsheet applications
http://www.bom.gov.au/fwo/IDQ60801/IDQ60801.94396.axf

JavaScript Object Notation format (JSON) in row-major order
http://www.bom.gov.au/fwo/IDQ60801/IDQ60801.94396.json